Time;durP1;ratioP1;P1;durP2;ratioP2;P2;SDS_P1;SDS_P2;PMS_P1;PMS_P2;Temp;Humidity;BMP_temperature;BMP_pressure;BME280_temperature;BME280_humidity;BME280_pressure;Samples;Min_cycle;Max_cycle;Signal;HPM_P1;HPM_P2
2021/04/25 00:00:57;;;;;;;;;;;;;;;4.22;67.57;96400.03;3617902;39;21824;-55
2021/04/25 00:03:24;;;;;;;;;;;;;;;4.18;68.04;96410.09;3622152;39;19939;-54
2021/04/25 00:05:51;;;;;;;;;;;;;;;4.12;68.45;96405.69;3621284;39;20312;-55
2021/04/25 00:08:18;;;;;;;;;;;;;;;4.11;68.08;96399.66;3620858;39;19945;-56
2021/04/25 00:10:45;;;;;;;;;;;;;;;4.10;68.02;96411.09;3621933;39;19943;-54
2021/04/25 00:13:12;;;;;;;;;;;;;;;4.10;67.74;96402.47;3616871;39;19943;-56
2021/04/25 00:15:39;;;;;;;;;;;;;;;4.05;67.54;96391.81;3620366;39;19943;-54
2021/04/25 00:18:06;;;;;;;;;;;;;;;4.04;67.54;96400.66;3621384;39;20765;-54
2021/04/25 00:20:33;;;;;;;;;;;;;;;4.00;68.16;96397.66;3606641;39;20056;-55
2021/04/25 00:23:01;;;;;;;;;;;;;;;3.98;68.42;96395.25;3618781;39;20224;-54
2021/04/25 00:25:28;;;;;;;;;;;;;;;3.98;68.18;96387.41;3619000;39;19943;-54
2021/04/25 00:27:55;;;;;;;;;;;;;;;4.02;68.05;96387.81;3621853;39;19943;-54
2021/04/25 00:30:22;;;;;;;;;;;;;;;4.04;68.26;96379.75;3616850;39;19939;-54
2021/04/25 00:32:50;;;;;;;;;;;;;;;3.97;69.18;96375.38;3614701;39;19947;-57
2021/04/25 00:35:18;;;;;;;;;;;;;;;3.92;69.05;96382.19;3618064;39;19965;-54
2021/04/25 00:37:45;;;;;;;;;;;;;;;3.85;69.44;96382.19;3612426;39;19947;-55
2021/04/25 00:40:13;;;;;;;;;;;;;;;3.85;69.25;96372.56;3618842;39;19951;-55
2021/04/25 00:42:40;;;;;;;;;;;;;;;3.87;69.65;96374.97;3617804;39;19939;-54
2021/04/25 00:45:09;;;;;;;;;;;;;;;3.89;69.30;96375.56;3611928;39;21161;-54
2021/04/25 00:47:36;;;;;;;;;;;;;;;3.91;69.48;96376.16;3612854;39;20193;-55
2021/04/25 00:50:03;;;;;;;;;;;;;;;3.88;69.55;96373.94;3618957;39;19949;-55
2021/04/25 00:52:41;;;;;;;;;;;;;;;3.90;69.16;96373.75;3600502;39;19943;-54
2021/04/25 00:55:09;;;;;;;;;;;;;;;3.86;69.51;96378.59;3618478;39;19947;-54
2021/04/25 00:57:37;;;;;;;;;;;;;;;3.86;69.06;96373.38;3610636;39;19949;-54
2021/04/25 01:00:05;;;;;;;;;;;;;;;3.92;68.49;96372.53;3608319;39;19949;-54
2021/04/25 01:02:32;;;;;;;;;;;;;;;3.98;68.96;96374.38;3624599;39;19957;-55
2021/04/25 01:05:00;;;;;;;;;;;;;;;3.99;68.33;96370.75;3616632;39;19968;-55
2021/04/25 01:07:27;;;;;;;;;;;;;;;4.05;68.77;96366.53;3609383;39;19976;-55
2021/04/25 01:09:54;;;;;;;;;;;;;;;4.04;68.77;96364.91;3616833;39;19943;-55
2021/04/25 01:12:21;;;;;;;;;;;;;;;4.03;68.63;96370.31;3619344;39;19943;-56
2021/04/25 01:14:48;;;;;;;;;;;;;;;4.01;69.05;96370.53;3620803;39;19946;-55
2021/04/25 01:17:14;;;;;;;;;;;;;;;4.03;68.60;96373.75;3615664;39;20551;-55
2021/04/25 01:19:42;;;;;;;;;;;;;;;3.97;69.14;96364.94;3605778;39;20212;-55
2021/04/25 01:22:09;;;;;;;;;;;;;;;3.93;69.94;96360.31;3623979;39;19943;-55
2021/04/25 01:24:36;;;;;;;;;;;;;;;3.94;68.99;96365.31;3605789;39;19947;-54
2021/04/25 01:27:03;;;;;;;;;;;;;;;3.94;69.58;96370.53;3605222;39;19947;-54
2021/04/25 01:29:30;;;;;;;;;;;;;;;3.93;69.15;96368.16;3630699;39;19947;-54
2021/04/25 01:31:58;;;;;;;;;;;;;;;3.93;69.66;96368.16;3619154;39;19943;-55
2021/04/25 01:34:25;;;;;;;;;;;;;;;3.90;69.70;96363.31;3618045;39;19949;-55
2021/04/25 01:36:56;;;;;;;;;;;;;;;3.88;69.93;96355.69;3620881;39;19950;-53
2021/04/25 01:39:24;;;;;;;;;;;;;;;3.86;70.36;96349.88;3617406;39;19949;-56
2021/04/25 01:41:51;;;;;;;;;;;;;;;3.90;69.63;96358.88;3618278;39;19972;-56
2021/04/25 01:44:18;;;;;;;;;;;;;;;3.93;69.63;96348.06;3616759;39;19941;-56
2021/04/25 01:46:45;;;;;;;;;;;;;;;3.98;69.56;96350.88;3615615;39;19947;-55
2021/04/25 01:49:13;;;;;;;;;;;;;;;4.00;70.81;96337.59;3613959;39;19996;-56
2021/04/25 01:51:41;;;;;;;;;;;;;;;4.00;70.12;96346.22;3629611;39;19953;-55
2021/04/25 01:54:08;;;;;;;;;;;;;;;4.08;69.56;96350.44;3616530;39;20432;-56
2021/04/25 01:56:35;;;;;;;;;;;;;;;4.16;68.88;96352.03;3617128;39;19942;-56
2021/04/25 01:59:02;;;;;;;;;;;;;;;4.21;69.05;96356.66;3608637;39;19943;-56
2021/04/25 02:01:30;;;;;;;;;;;;;;;4.19;68.94;96351.63;3613374;39;20578;-56
2021/04/25 02:03:57;;;;;;;;;;;;;;;4.19;69.10;96351.63;3617757;39;19943;-53
2021/04/25 02:06:25;;;;;;;;;;;;;;;4.17;69.35;96343.19;3618981;39;19947;-55
2021/04/25 02:08:54;;;;;;;;;;;;;;;4.13;70.00;96347.22;3617342;39;22126;-55
2021/04/25 02:11:21;;;;;;;;;;;;;;;4.09;69.62;96346.81;3621848;39;19943;-55
2021/04/25 02:13:47;;;;;;;;;;;;;;;4.08;69.43;96345.22;3609102;39;19943;-54
2021/04/25 02:16:15;;;;;;;;;;;;;;;4.07;69.57;96343.59;3621086;39;19942;-54
2021/04/25 02:18:42;;;;;;;;;;;;;;;4.07;69.04;96337.59;3619936;39;19973;-54
2021/04/25 02:21:10;;;;;;;;;;;;;;;4.07;68.99;96337.59;3617220;39;19951;-55
2021/04/25 02:23:37;;;;;;;;;;;;;;;4.09;68.75;96340.81;3606776;39;20031;-54
2021/04/25 02:26:04;;;;;;;;;;;;;;;4.03;68.99;96339.00;3619636;39;20288;-54
2021/04/25 02:28:31;;;;;;;;;;;;;;;4.00;69.13;96325.34;3620939;39;19989;-55
2021/04/25 02:30:58;;;;;;;;;;;;;;;3.96;69.76;96324.16;3620851;39;20399;-54
2021/04/25 02:33:25;;;;;;;;;;;;;;;3.92;69.53;96330.00;3618163;39;19949;-55
2021/04/25 02:35:53;;;;;;;;;;;;;;;3.87;70.05;96327.19;3614914;39;20033;-54
2021/04/25 02:38:19;;;;;;;;;;;;;;;3.81;70.60;96324.38;3622462;39;20211;-54
2021/04/25 02:40:46;;;;;;;;;;;;;;;3.87;70.39;96321.97;3618862;39;19943;-55
2021/04/25 02:43:13;;;;;;;;;;;;;;;3.89;70.26;96320.75;3611726;39;20357;-54
2021/04/25 02:45:40;;;;;;;;;;;;;;;3.89;70.60;96320.75;3618082;39;19957;-55
2021/04/25 02:48:09;;;;;;;;;;;;;;;3.88;70.81;96319.13;3621589;39;19946;-53
2021/04/25 02:50:37;;;;;;;;;;;;;;;3.84;70.90;96315.34;3602227;39;19935;-54
2021/04/25 02:53:06;;;;;;;;;;;;;;;3.74;70.99;96292.25;3607793;39;19973;-55
2021/04/25 02:55:32;;;;;;;;;;;;;;;3.89;69.65;96310.31;3617501;39;19949;-55
2021/04/25 02:58:00;;;;;;;;;;;;;;;3.90;68.92;96304.09;3616868;39;19953;-55
2021/04/25 03:00:28;;;;;;;;;;;;;;;3.90;68.59;96300.69;3610288;39;19943;-55
2021/04/25 03:02:55;;;;;;;;;;;;;;;3.88;68.23;96307.91;3620061;39;19947;-55
2021/04/25 03:05:24;;;;;;;;;;;;;;;3.92;68.42;96298.69;3616435;39;20222;-54
2021/04/25 03:07:51;;;;;;;;;;;;;;;3.92;68.17;96291.63;3615941;39;19962;-54
2021/04/25 03:10:19;;;;;;;;;;;;;;;3.93;68.48;96295.06;3614716;39;19950;-55
2021/04/25 03:12:46;;;;;;;;;;;;;;;3.91;68.32;96295.25;3617620;39;19943;-55
2021/04/25 03:15:14;;;;;;;;;;;;;;;3.91;67.95;96292.63;3618400;39;20293;-55
2021/04/25 03:17:41;;;;;;;;;;;;;;;3.89;67.99;96289.44;3602300;39;19946;-56
2021/04/25 03:20:10;;;;;;;;;;;;;;;3.88;68.09;96285.22;3620018;39;19953;-54
2021/04/25 03:22:37;;;;;;;;;;;;;;;3.91;67.95;96292.63;3617700;39;20185;-54
2021/04/25 03:25:07;;;;;;;;;;;;;;;3.87;67.47;96288.84;3616728;39;20296;-53
2021/04/25 03:27:34;;;;;;;;;;;;;;;3.88;67.72;96277.38;3610159;39;19951;-55
2021/04/25 03:30:02;;;;;;;;;;;;;;;3.91;67.88;96276.97;3613743;39;19931;-54
2021/04/25 03:32:29;;;;;;;;;;;;;;;3.90;67.62;96275.38;3621033;39;19951;-54
2021/04/25 03:34:56;;;;;;;;;;;;;;;3.95;67.88;96272.97;3626867;39;19943;-54
2021/04/25 03:37:23;;;;;;;;;;;;;;;3.98;67.43;96266.53;3615395;39;19957;-53
2021/04/25 03:39:50;;;;;;;;;;;;;;;3.97;67.50;96270.97;3616435;39;19954;-54
2021/04/25 03:42:17;;;;;;;;;;;;;;;3.93;67.63;96274.97;3618105;39;19943;-54
2021/04/25 03:44:44;;;;;;;;;;;;;;;3.89;67.87;96278.19;3616588;39;19958;-54
2021/04/25 03:47:10;;;;;;;;;;;;;;;3.95;67.43;96280.78;3615910;39;20357;-54
2021/04/25 03:49:38;;;;;;;;;;;;;;;3.96;68.11;96281.59;3611527;39;19935;-54
2021/04/25 03:52:06;;;;;;;;;;;;;;;3.89;68.27;96278.19;3618238;39;19942;-54
2021/04/25 03:54:33;;;;;;;;;;;;;;;3.88;68.32;96276.59;3615228;39;19953;-53
2021/04/25 03:57:00;;;;;;;;;;;;;;;3.87;68.42;96281.03;3609722;39;19957;-55
2021/04/25 03:59:27;;;;;;;;;;;;;;;3.86;68.63;96276.81;3618109;39;20279;-54
2021/04/25 04:01:54;;;;;;;;;;;;;;;3.92;68.54;96275.97;3615118;39;20087;-54
2021/04/25 04:04:21;;;;;;;;;;;;;;;3.93;69.54;96274.97;3618707;39;21000;-55
2021/04/25 04:06:49;;;;;;;;;;;;;;;3.91;70.25;96271.75;3617985;39;20224;-54
2021/04/25 04:09:18;;;;;;;;;;;;;;;3.91;70.65;96276.19;3616246;39;19950;-53
2021/04/25 04:11:45;;;;;;;;;;;;;;;3.93;70.92;96272.38;3617462;39;19943;-54
2021/04/25 04:14:12;;;;;;;;;;;;;;;3.93;71.12;96282.81;3619674;39;19959;-56
2021/04/25 04:16:39;;;;;;;;;;;;;;;3.94;71.52;96291.44;3614877;39;22134;-54
2021/04/25 04:19:06;;;;;;;;;;;;;;;3.97;70.81;96296.25;3614409;39;20008;-55
2021/04/25 04:21:34;;;;;;;;;;;;;;;4.01;70.48;96292.22;3617684;39;19935;-54
2021/04/25 04:24:01;;;;;;;;;;;;;;;4.09;70.27;96283.38;3602385;39;19943;-55
2021/04/25 04:26:28;;;;;;;;;;;;;;;4.10;70.81;96275.31;3618404;39;19953;-55
2021/04/25 04:28:55;;;;;;;;;;;;;;;4.11;70.95;96279.53;3621019;39;19949;-55
2021/04/25 04:31:22;;;;;;;;;;;;;;;4.18;70.69;96292.59;3619681;39;19943;-54
2021/04/25 04:33:49;;;;;;;;;;;;;;;4.24;70.42;96286.56;3617219;39;19935;-54
2021/04/25 04:36:17;;;;;;;;;;;;;;;4.34;69.91;96287.91;3616251;39;19947;-54
2021/04/25 04:38:44;;;;;;;;;;;;;;;4.42;70.14;96290.28;3612148;39;20072;-53
2021/04/25 04:41:12;;;;;;;;;;;;;;;4.45;70.42;96288.06;3624898;39;19947;-58
2021/04/25 04:43:39;;;;;;;;;;;;;;;4.50;70.06;96289.25;3614622;39;19939;-58
2021/04/25 04:46:06;;;;;;;;;;;;;;;4.58;70.41;96297.66;3626594;39;20531;-54
2021/04/25 04:48:33;;;;;;;;;;;;;;;4.64;69.96;96293.44;3616544;39;19953;-55
2021/04/25 04:51:00;;;;;;;;;;;;;;;4.64;69.98;96301.25;3618115;39;19950;-55
2021/04/25 04:53:27;;;;;;;;;;;;;;;4.65;68.78;96307.28;3602447;39;19942;-54
2021/04/25 04:55:55;;;;;;;;;;;;;;;4.64;68.67;96309.09;3615096;39;20417;-54
2021/04/25 04:58:22;;;;;;;;;;;;;;;4.63;69.06;96315.34;3614790;39;20429;-55
2021/04/25 05:00:49;;;;;;;;;;;;;;;4.60;69.59;96313.94;3618317;39;19936;-55
2021/04/25 05:03:22;;;;;;;;;;;;;;;4.57;70.77;96314.34;3617725;39;21135;-55
2021/04/25 05:05:49;;;;;;;;;;;;;;;4.51;72.15;96320.41;3616301;39;20310;-55
2021/04/25 05:08:16;;;;;;;;;;;;;;;4.53;72.34;96314.97;3612078;39;19947;-54
2021/04/25 05:10:43;;;;;;;;;;;;;;;4.52;73.39;96314.16;3616641;39;19949;-54
2021/04/25 05:13:10;;;;;;;;;;;;;;;4.49;74.31;96314.59;3611368;39;19947;-57
2021/04/25 05:15:38;;;;;;;;;;;;;;;4.43;74.82;96312.78;3613237;39;19943;-54
2021/04/25 05:18:05;;;;;;;;;;;;;;;4.41;75.11;96312.19;3617863;39;19961;-56
2021/04/25 05:20:32;;;;;;;;;;;;;;;4.40;74.94;96305.38;3614690;39;19942;-57
2021/04/25 05:23:00;;;;;;;;;;;;;;;4.40;75.41;96305.38;3615471;39;19950;-54
2021/04/25 05:25:27;;;;;;;;;;;;;;;4.41;74.90;96309.59;3604131;39;19942;-54
2021/04/25 05:27:55;;;;;;;;;;;;;;;4.41;75.62;96309.59;3614393;39;19943;-54
2021/04/25 05:30:22;;;;;;;;;;;;;;;4.36;76.17;96314.66;3616666;39;20159;-55
2021/04/25 05:32:49;;;;;;;;;;;;;;;4.31;76.96;96313.44;3616980;39;19942;-54
2021/04/25 05:35:16;;;;;;;;;;;;;;;4.33;76.74;96315.03;3615565;39;20204;-54
2021/04/25 05:37:43;;;;;;;;;;;;;;;4.29;77.73;96299.78;3615735;39;19943;-54
2021/04/25 05:40:11;;;;;;;;;;;;;;;4.26;78.42;96304.63;3612646;39;19947;-54
2021/04/25 05:42:39;;;;;;;;;;;;;;;4.20;79.13;96308.03;3605119;39;19943;-54
2021/04/25 05:45:07;;;;;;;;;;;;;;;4.15;79.90;96306.03;3606252;39;19951;-54
2021/04/25 05:47:34;;;;;;;;;;;;;;;4.10;79.67;96309.28;3614659;39;19947;-54
2021/04/25 05:50:01;;;;;;;;;;;;;;;4.09;80.56;96305.06;3616602;39;19953;-54
2021/04/25 05:52:28;;;;;;;;;;;;;;;4.14;79.65;96307.03;3606098;39;19949;-54
2021/04/25 05:54:56;;;;;;;;;;;;;;;4.18;79.29;96310.84;3617979;39;19943;-54
2021/04/25 05:57:23;;;;;;;;;;;;;;;4.31;77.12;96308.22;3616091;39;19943;-54
2021/04/25 05:59:50;;;;;;;;;;;;;;;4.43;75.72;96313.59;3616779;39;19943;-57
2021/04/25 06:02:17;;;;;;;;;;;;;;;4.50;76.34;96308.34;3626169;39;19939;-56
2021/04/25 06:04:44;;;;;;;;;;;;;;;4.50;76.70;96310.94;3616209;39;21835;-55
2021/04/25 06:07:12;;;;;;;;;;;;;;;4.53;76.69;96304.53;3602392;39;19947;-55
2021/04/25 06:09:38;;;;;;;;;;;;;;;4.58;76.44;96299.47;3613613;39;20582;-56
2021/04/25 06:12:06;;;;;;;;;;;;;;;4.62;77.39;96304.06;3613610;39;19935;-56
2021/04/25 06:14:33;;;;;;;;;;;;;;;4.59;77.68;96307.13;3613822;39;20226;-56
2021/04/25 06:17:00;;;;;;;;;;;;;;;4.60;77.43;96311.34;3615585;39;19943;-55
2021/04/25 06:19:27;;;;;;;;;;;;;;;4.64;76.92;96316.13;3616129;39;20030;-55
2021/04/25 06:21:54;;;;;;;;;;;;;;;4.57;77.64;96326.59;3616559;39;19965;-54
2021/04/25 06:24:21;;;;;;;;;;;;;;;4.51;78.33;96324.84;3611276;39;19943;-55
2021/04/25 06:26:48;;;;;;;;;;;;;;;4.43;79.17;96312.78;3614504;39;20232;-54
2021/04/25 06:29:15;;;;;;;;;;;;;;;4.38;78.23;96315.22;3615017;39;19971;-54
2021/04/25 06:31:43;;;;;;;;;;;;;;;4.43;78.02;96328.47;3609343;39;19953;-54
2021/04/25 06:34:10;;;;;;;;;;;;;;;4.47;77.16;96319.22;3611795;39;22523;-55
2021/04/25 06:36:42;;;;;;;;;;;;;;;4.50;80.20;96318.78;3600344;39;19946;-54
2021/04/25 06:39:10;;;;;;;;;;;;;;;4.51;80.27;96314.38;3614390;39;19942;-54
2021/04/25 06:41:37;;;;;;;;;;;;;;;4.53;80.33;96310.53;3618748;39;19943;-54
2021/04/25 06:44:04;;;;;;;;;;;;;;;4.55;79.10;96303.31;3622232;39;20414;-54
2021/04/25 06:46:31;;;;;;;;;;;;;;;4.58;79.40;96302.06;3620069;39;19953;-55
2021/04/25 06:48:58;;;;;;;;;;;;;;;4.61;78.28;96301.66;3612169;39;19943;-55
2021/04/25 06:51:26;;;;;;;;;;;;;;;4.60;78.43;96300.88;3612638;39;19947;-53
2021/04/25 06:53:53;;;;;;;;;;;;;;;4.60;79.29;96300.88;3619388;39;19949;-54
2021/04/25 06:56:20;;;;;;;;;;;;;;;4.60;79.38;96300.06;3622231;39;19939;-55
2021/04/25 06:58:47;;;;;;;;;;;;;;;4.61;80.02;96292.03;3617405;39;19935;-55
2021/04/25 07:01:15;;;;;;;;;;;;;;;4.60;79.79;96295.66;3617051;39;21455;-54
2021/04/25 07:03:42;;;;;;;;;;;;;;;4.60;79.37;96295.66;3618634;39;19965;-55
2021/04/25 07:06:09;;;;;;;;;;;;;;;4.62;79.05;96293.63;3611169;39;19935;-55
2021/04/25 07:08:36;;;;;;;;;;;;;;;4.70;80.06;96299.63;3607653;39;20227;-54
2021/04/25 07:11:04;;;;;;;;;;;;;;;4.85;78.69;96289.72;3620175;39;19969;-54
2021/04/25 07:13:31;;;;;;;;;;;;;;;5.14;78.22;96287.50;3615391;39;19957;-52
2021/04/25 07:15:58;;;;;;;;;;;;;;;5.38;76.93;96290.34;3619447;39;19943;-57
2021/04/25 07:18:25;;;;;;;;;;;;;;;5.52;77.32;96302.31;3627335;39;19947;-54
2021/04/25 07:20:54;;;;;;;;;;;;;;;5.59;77.69;96296.25;3625822;39;20200;-53
2021/04/25 07:23:24;;;;;;;;;;;;;;;5.59;78.00;96297.03;3617536;39;19968;-53
2021/04/25 07:25:52;;;;;;;;;;;;;;;5.70;76.55;96293.72;3621710;39;19945;-54
2021/04/25 07:28:19;;;;;;;;;;;;;;;5.76;77.04;96284.19;3620079;39;20277;-54
2021/04/25 07:30:49;;;;;;;;;;;;;;;5.83;76.14;96286.75;3623133;39;20187;-55
2021/04/25 07:33:16;;;;;;;;;;;;;;;6.05;77.15;96287.19;3621423;39;19951;-53
2021/04/25 07:35:43;;;;;;;;;;;;;;;6.25;75.81;96283.53;3624456;39;20304;-54
2021/04/25 07:38:10;;;;;;;;;;;;;;;6.43;75.73;96283.56;3610485;39;19947;-56
2021/04/25 07:40:38;;;;;;;;;;;;;;;6.58;76.09;96271.88;3611777;39;19941;-56
2021/04/25 07:43:06;;;;;;;;;;;;;;;6.67;74.95;96275.81;3611915;39;19996;-55
2021/04/25 07:45:33;;;;;;;;;;;;;;;6.67;74.09;96283.66;3616611;39;19943;-54
2021/04/25 07:48:00;;;;;;;;;;;;;;;6.55;74.08;96278.34;3615611;39;19951;-55
2021/04/25 07:50:31;;;;;;;;;;;;;;;6.50;74.26;96277.41;3607243;39;19943;-54
2021/04/25 07:53:00;;;;;;;;;;;;;;;6.54;75.21;96281.22;3620503;39;20292;-55
2021/04/25 07:55:28;;;;;;;;;;;;;;;6.52;74.66;96283.25;3615790;39;19950;-55
2021/04/25 07:57:54;;;;;;;;;;;;;;;6.50;75.01;96273.00;3614888;39;19947;-55
2021/04/25 08:00:22;;;;;;;;;;;;;;;6.49;74.22;96273.19;3616660;39;19969;-53
2021/04/25 08:02:49;;;;;;;;;;;;;;;6.46;75.22;96277.06;3620165;39;19982;-54
2021/04/25 08:05:15;;;;;;;;;;;;;;;6.46;75.77;96274.44;3620594;39;20290;-55
2021/04/25 08:07:43;;;;;;;;;;;;;;;6.45;74.63;96278.91;3622700;39;19950;-55
2021/04/25 08:10:10;;;;;;;;;;;;;;;6.46;73.94;96279.69;3623775;39;20217;-54
2021/04/25 08:12:37;;;;;;;;;;;;;;;6.46;74.17;96282.31;3621641;39;20337;-55
2021/04/25 08:15:04;;;;;;;;;;;;;;;6.53;74.22;96284.84;3622527;39;19943;-55
2021/04/25 08:17:32;;;;;;;;;;;;;;;6.62;74.37;96286.13;3617770;39;19949;-55
2021/04/25 08:19:59;;;;;;;;;;;;;;;6.71;73.83;96281.41;3621957;39;19943;-56
2021/04/25 08:22:26;;;;;;;;;;;;;;;6.88;72.38;96284.19;3617008;39;21385;-56
2021/04/25 08:24:53;;;;;;;;;;;;;;;7.03;73.46;96279.34;3618242;39;22131;-54
2021/04/25 08:27:20;;;;;;;;;;;;;;;7.21;74.08;96277.66;3611613;39;19945;-55
2021/04/25 08:29:47;;;;;;;;;;;;;;;7.47;73.46;96279.09;3620492;39;20285;-54
2021/04/25 08:32:14;;;;;;;;;;;;;;;7.72;71.61;96283.34;3622415;39;19949;-55
2021/04/25 08:34:41;;;;;;;;;;;;;;;8.00;69.65;96282.66;3618787;39;20285;-54
2021/04/25 08:37:08;;;;;;;;;;;;;;;8.34;68.99;96289.09;3620444;39;19947;-54
2021/04/25 08:39:36;;;;;;;;;;;;;;;8.49;68.69;96286.81;3609746;39;19951;-54
2021/04/25 08:42:03;;;;;;;;;;;;;;;8.61;70.29;96282.31;3608413;39;19947;-57
2021/04/25 08:44:30;;;;;;;;;;;;;;;8.81;65.11;96275.06;3605389;39;19943;-55
2021/04/25 08:46:57;;;;;;;;;;;;;;;8.91;64.42;96276.06;3610140;39;19953;-54
2021/04/25 08:49:26;;;;;;;;;;;;;;;9.00;63.79;96275.66;3614058;39;19958;-55
2021/04/25 08:51:53;;;;;;;;;;;;;;;8.99;64.69;96274.84;3617617;39;19942;-54
2021/04/25 08:54:22;;;;;;;;;;;;;;;9.13;64.69;96272.75;3617379;39;19949;-55
2021/04/25 08:56:50;;;;;;;;;;;;;;;9.22;62.76;96263.41;3618993;39;19969;-54
2021/04/25 08:59:17;;;;;;;;;;;;;;;9.40;63.42;96261.59;3616990;39;19935;-56
2021/04/25 09:01:44;;;;;;;;;;;;;;;9.60;61.81;96249.78;3630338;39;19934;-57
2021/04/25 09:04:12;;;;;;;;;;;;;;;9.71;61.18;96256.78;3622220;39;19949;-58
2021/04/25 09:06:58;;;;;;;;;;;;;;;9.92;59.71;96259.69;3616720;39;20332;-54
2021/04/25 09:09:41;;;;;;;;;;;;;;;10.16;62.87;96258.44;3616718;39;19951;-55
2021/04/25 09:12:09;;;;;;;;;;;;;;;10.48;60.45;96245.66;3607587;39;19946;-54
2021/04/25 09:14:38;;;;;;;;;;;;;;;10.51;58.92;96255.72;3606710;39;19943;-54
2021/04/25 09:17:06;;;;;;;;;;;;;;;10.44;58.96;96248.78;3614143;39;19935;-55
2021/04/25 09:19:47;;;;;;;;;;;;;;;10.57;56.91;96245.00;3606270;39;20345;-56
2021/04/25 09:22:14;;;;;;;;;;;;;;;10.59;56.06;96234.19;3606831;39;19965;-56
2021/04/25 09:24:42;;;;;;;;;;;;;;;10.67;55.25;96225.81;3614532;39;19941;-53
2021/04/25 09:27:09;;;;;;;;;;;;;;;10.84;56.50;96230.22;3616859;39;19942;-54
2021/04/25 09:30:06;;;;;;;;;;;;;;;10.98;55.08;96235.88;3622330;39;20330;-55
2021/04/25 09:32:33;;;;;;;;;;;;;;;11.14;54.46;96231.56;3609538;39;20379;-55
2021/04/25 09:35:14;;;;;;;;;;;;;;;11.07;53.42;96237.81;3617064;39;20377;-53
2021/04/25 09:37:43;;;;;;;;;;;;;;;10.96;54.23;96230.84;3614038;39;19943;-57
2021/04/25 09:40:10;;;;;;;;;;;;;;;11.06;53.85;96233.59;3614309;39;20808;-58
2021/04/25 09:42:56;;;;;;;;;;;;;;;11.14;54.23;96232.34;3599772;39;20205;-54
2021/04/25 09:45:29;;;;;;;;;;;;;;;11.23;52.88;96220.25;3612005;39;19943;-55
2021/04/25 09:47:56;;;;;;;;;;;;;;;11.26;52.80;96221.59;3609068;39;19974;-55
2021/04/25 09:50:23;;;;;;;;;;;;;;;11.25;52.61;96219.22;3607426;39;19947;-54
2021/04/25 09:52:51;;;;;;;;;;;;;;;11.26;53.46;96213.66;3618911;39;19943;-56
2021/04/25 09:55:20;;;;;;;;;;;;;;;11.53;52.28;96210.16;3620723;39;20189;-59
2021/04/25 09:57:48;;;;;;;;;;;;;;;11.63;54.25;96212.88;3622129;39;19973;-54
2021/04/25 10:00:15;;;;;;;;;;;;;;;11.76;53.74;96205.53;3606139;39;20042;-55
2021/04/25 10:02:55;;;;;;;;;;;;;;;11.72;54.17;96207.91;3606994;39;19946;-54
2021/04/25 10:05:23;;;;;;;;;;;;;;;11.76;54.80;96205.53;3598374;39;20289;-54
2021/04/25 10:07:50;;;;;;;;;;;;;;;11.74;52.16;96210.31;3615289;39;20281;-54
2021/04/25 10:10:19;;;;;;;;;;;;;;;11.57;53.01;96200.69;3614017;39;19950;-54
2021/04/25 10:12:47;;;;;;;;;;;;;;;11.47;52.63;96205.91;3614986;39;19965;-54
2021/04/25 10:15:15;;;;;;;;;;;;;;;11.26;51.84;96202.31;3613205;39;19946;-54
2021/04/25 10:17:42;;;;;;;;;;;;;;;10.95;52.80;96194.16;3611893;39;19947;-58
2021/04/25 10:20:10;;;;;;;;;;;;;;;10.68;54.75;96201.03;3617738;39;19981;-55
2021/04/25 10:22:41;;;;;;;;;;;;;;;10.47;54.17;96200.03;3614188;39;19935;-54
2021/04/25 10:25:09;;;;;;;;;;;;;;;10.28;55.39;96202.97;3607643;39;19953;-55
2021/04/25 10:27:40;;;;;;;;;;;;;;;10.17;55.43;96203.88;3624423;39;20292;-54
2021/04/25 10:30:08;;;;;;;;;;;;;;;10.14;56.62;96199.91;3614568;39;19977;-54
2021/04/25 10:32:35;;;;;;;;;;;;;;;10.20;57.73;96197.31;3610926;39;22452;-53
2021/04/25 10:35:22;;;;;;;;;;;;;;;10.11;57.17;96197.75;3606947;39;19950;-54
2021/04/25 10:37:50;;;;;;;;;;;;;;;10.08;56.46;96195.59;3607459;39;20701;-55
2021/04/25 10:40:22;;;;;;;;;;;;;;;10.12;55.93;96196.72;3610441;39;19947;-54
2021/04/25 10:42:53;;;;;;;;;;;;;;;10.24;56.80;96191.31;3616352;39;19947;-54
2021/04/25 10:45:30;;;;;;;;;;;;;;;10.23;56.49;96200.25;3613265;39;19941;-53
2021/04/25 10:48:15;;;;;;;;;;;;;;;10.16;57.86;96197.81;3611375;39;20293;-54
2021/04/25 10:51:06;;;;;;;;;;;;;;;9.93;58.50;96196.22;3606271;39;19943;-54
2021/04/25 10:53:35;;;;;;;;;;;;;;;9.74;60.23;96200.97;3607088;39;20064;-55
2021/04/25 10:56:14;;;;;;;;;;;;;;;9.58;59.46;96199.97;3609585;39;21553;-55
2021/04/25 10:58:41;;;;;;;;;;;;;;;9.45;60.89;96201.09;3609895;39;20258;-54
2021/04/25 11:01:09;;;;;;;;;;;;;;;9.52;59.15;96196.47;3599438;39;19946;-55
2021/04/25 11:03:36;;;;;;;;;;;;;;;9.64;59.21;96198.22;3617451;39;19949;-54
2021/04/25 11:06:03;;;;;;;;;;;;;;;9.79;59.84;96198.41;3601172;39;20216;-54
2021/04/25 11:08:30;;;;;;;;;;;;;;;9.95;59.04;96194.16;3606559;39;19970;-54
2021/04/25 11:10:57;;;;;;;;;;;;;;;10.19;58.45;96187.81;3609046;39;19950;-55
2021/04/25 11:13:46;;;;;;;;;;;;;;;10.45;58.20;96189.72;3613450;39;20399;-54
2021/04/25 11:16:13;;;;;;;;;;;;;;;10.72;57.76;96180.22;3609437;39;20052;-54
2021/04/25 11:18:41;;;;;;;;;;;;;;;10.80;56.92;96184.25;3607425;39;21379;-61
2021/04/25 11:21:27;;;;;;;;;;;;;;;10.97;56.74;96181.50;3603305;39;20868;-55
2021/04/25 11:24:04;;;;;;;;;;;;;;;11.25;56.09;96187.53;3596250;39;20008;-55
2021/04/25 11:26:40;;;;;;;;;;;;;;;11.39;56.36;96191.31;3594241;39;20796;-53
2021/04/25 11:29:08;;;;;;;;;;;;;;;11.70;55.54;96194.16;3595988;39;19957;-55
2021/04/25 11:31:48;;;;;;;;;;;;;;;11.81;55.60;96185.25;3593065;39;21662;-58
2021/04/25 11:34:24;;;;;;;;;;;;;;;11.93;55.33;96186.91;3604294;39;20016;-56
2021/04/25 11:36:52;;;;;;;;;;;;;;;11.91;55.97;96178.41;3618405;39;19964;-54
2021/04/25 11:39:21;;;;;;;;;;;;;;;11.96;53.81;96187.16;3619017;39;19941;-54
2021/04/25 11:41:49;;;;;;;;;;;;;;;11.93;52.42;96182.38;3605027;39;19951;-55
2021/04/25 11:44:23;;;;;;;;;;;;;;;11.84;54.06;96186.59;3614876;39;19955;-53
2021/04/25 11:46:50;;;;;;;;;;;;;;;11.79;53.90;96186.53;3617251;39;20280;-55
2021/04/25 11:49:27;;;;;;;;;;;;;;;11.55;54.04;96184.28;3612597;39;19943;-54
2021/04/25 11:52:08;;;;;;;;;;;;;;;11.49;53.60;96185.34;3614731;39;20314;-58
2021/04/25 11:54:36;;;;;;;;;;;;;;;11.49;53.26;96180.81;3595841;39;19939;-55
2021/04/25 11:57:21;;;;;;;;;;;;;;;11.43;54.32;96189.78;3608158;39;19951;-55
2021/04/25 11:59:51;;;;;;;;;;;;;;;11.44;54.10;96190.56;3607170;39;19954;-55
2021/04/25 12:02:18;;;;;;;;;;;;;;;11.50;52.96;96187.72;3620445;39;19953;-54
2021/04/25 12:04:45;;;;;;;;;;;;;;;11.39;53.17;96186.84;3607373;39;19943;-54
2021/04/25 12:07:12;;;;;;;;;;;;;;;11.27;52.52;96180.94;3612929;39;19946;-54
2021/04/25 12:09:40;;;;;;;;;;;;;;;11.18;51.68;96193.03;3611036;39;19951;-56
2021/04/25 12:12:08;;;;;;;;;;;;;;;11.20;48.94;96190.94;3611572;39;19942;-55
2021/04/25 12:14:35;;;;;;;;;;;;;;;11.30;46.87;96195.50;3594175;39;19951;-60
2021/04/25 12:17:13;;;;;;;;;;;;;;;11.34;47.32;96197.38;3614679;39;20199;-53
2021/04/25 12:19:40;;;;;;;;;;;;;;;11.12;45.21;96194.03;3616854;39;19943;-56
2021/04/25 12:22:07;;;;;;;;;;;;;;;10.92;44.11;96195.44;3615704;39;19943;-56
2021/04/25 12:24:34;;;;;;;;;;;;;;;10.85;45.15;96187.72;3604931;39;19953;-54
2021/04/25 12:27:05;;;;;;;;;;;;;;;10.61;45.55;96192.53;3618166;39;20667;-55
2021/04/25 12:29:36;;;;;;;;;;;;;;;10.57;45.49;96194.06;3613104;39;21666;-55
2021/04/25 12:32:04;;;;;;;;;;;;;;;10.36;44.72;96199.09;3618538;39;19943;-54
2021/04/25 12:34:32;;;;;;;;;;;;;;;10.53;44.75;96193.78;3615667;39;20332;-55
2021/04/25 12:37:00;;;;;;;;;;;;;;;10.63;44.47;96187.81;3612803;39;19947;-54
2021/04/25 12:39:40;;;;;;;;;;;;;;;10.65;44.37;96169.09;3611708;39;20276;-54
2021/04/25 12:42:20;;;;;;;;;;;;;;;10.86;44.42;96181.41;3611667;39;19951;-54
2021/04/25 12:44:47;;;;;;;;;;;;;;;10.93;44.84;96178.56;3610682;39;20484;-55
2021/04/25 12:47:14;;;;;;;;;;;;;;;11.08;44.50;96181.34;3617153;39;19943;-55
2021/04/25 12:49:51;;;;;;;;;;;;;;;11.12;43.98;96183.47;3616004;39;20023;-61
2021/04/25 12:52:18;;;;;;;;;;;;;;;11.18;41.86;96178.00;3611876;39;19948;-55
2021/04/25 12:54:45;;;;;;;;;;;;;;;11.22;42.18;96173.78;3611207;39;19942;-55
2021/04/25 12:57:13;;;;;;;;;;;;;;;11.21;41.68;96177.47;3623336;39;19951;-55
2021/04/25 12:59:40;;;;;;;;;;;;;;;11.23;41.25;96164.03;3618044;39;19939;-53
2021/04/25 13:02:10;;;;;;;;;;;;;;;11.14;40.65;96166.34;3614091;39;19943;-55